sensor_id;sensor_type;location;lat;lon;timestamp;pressure;altitude;pressure_sealevel;temperature;humidity
38939;BME280;24211;49.980;19.776;2022-07-11T00:01:05;99436.63;;;15.61;55.75
38939;BME280;24211;49.980;19.776;2022-07-11T00:03:32;99433.38;;;15.59;55.76
38939;BME280;24211;49.980;19.776;2022-07-11T00:06:00;99425.53;;;15.58;55.95
38939;BME280;24211;49.980;19.776;2022-07-11T00:08:28;99421.28;;;15.62;55.72
38939;BME280;24211;49.980;19.776;2022-07-11T00:10:55;99433.88;;;15.56;55.67
38939;BME280;24211;49.980;19.776;2022-07-11T00:13:23;99428.47;;;15.56;55.77
38939;BME280;24211;49.980;19.776;2022-07-11T00:15:52;99426.84;;;15.55;55.88
38939;BME280;24211;49.980;19.776;2022-07-11T00:18:20;99421.97;;;15.52;55.52
38939;BME280;24211;49.980;19.776;2022-07-11T00:20:47;99431.63;;;15.48;56.12
38939;BME280;24211;49.980;19.776;2022-07-11T00:23:14;99422.97;;;15.46;55.71
38939;BME280;24211;49.980;19.776;2022-07-11T00:25:41;99424.78;;;15.41;56.26
38939;BME280;24211;49.980;19.776;2022-07-11T00:28:09;99425.59;;;15.41;56.39
38939;BME280;24211;49.980;19.776;2022-07-11T00:30:36;99422.06;;;15.41;56.28
38939;BME280;24211;49.980;19.776;2022-07-11T00:33:03;99426.63;;;15.35;56.49
38939;BME280;24211;49.980;19.776;2022-07-11T00:35:30;99422.53;;;15.33;56.69
38939;BME280;24211;49.980;19.776;2022-07-11T00:37:58;99422.28;;;15.34;56.26
38939;BME280;24211;49.980;19.776;2022-07-11T00:40:25;99420.09;;;15.31;56.30
38939;BME280;24211;49.980;19.776;2022-07-11T00:42:52;99418.47;;;15.30;56.41
38939;BME280;24211;49.980;19.776;2022-07-11T00:45:20;99425.47;;;15.31;56.54
38939;BME280;24211;49.980;19.776;2022-07-11T00:47:47;99419.53;;;15.29;56.86
38939;BME280;24211;49.980;19.776;2022-07-11T00:50:15;99423.03;;;15.30;56.62
38939;BME280;24211;49.980;19.776;2022-07-11T00:52:43;99427.34;;;15.31;56.40
38939;BME280;24211;49.980;19.776;2022-07-11T00:55:11;99424.41;;;15.32;56.01
38939;BME280;24211;49.980;19.776;2022-07-11T00:57:39;99427.59;;;15.29;55.85
38939;BME280;24211;49.980;19.776;2022-07-11T01:00:07;99432.19;;;15.29;55.79
38939;BME280;24211;49.980;19.776;2022-07-11T01:02:35;99430.03;;;15.31;55.93
38939;BME280;24211;49.980;19.776;2022-07-11T01:05:06;99429.47;;;15.29;55.68
38939;BME280;24211;49.980;19.776;2022-07-11T01:07:34;99436.19;;;15.26;56.11
38939;BME280;24211;49.980;19.776;2022-07-11T01:10:01;99439.09;;;15.20;56.54
38939;BME280;24211;49.980;19.776;2022-07-11T01:12:29;99444.13;;;15.16;57.25
38939;BME280;24211;49.980;19.776;2022-07-11T01:14:57;99440.88;;;15.14;57.24
38939;BME280;24211;49.980;19.776;2022-07-11T01:17:28;99433.91;;;15.13;57.72
38939;BME280;24211;49.980;19.776;2022-07-11T01:19:56;99433.91;;;15.13;57.66
38939;BME280;24211;49.980;19.776;2022-07-11T01:22:24;99440.41;;;15.17;57.39
38939;BME280;24211;49.980;19.776;2022-07-11T01:24:55;99436.66;;;15.18;57.15
38939;BME280;24211;49.980;19.776;2022-07-11T01:27:23;99435.56;;;15.19;56.66
38939;BME280;24211;49.980;19.776;2022-07-11T01:29:50;99432.06;;;15.19;56.76
38939;BME280;24211;49.980;19.776;2022-07-11T01:32:19;99437.16;;;15.15;57.05
38939;BME280;24211;49.980;19.776;2022-07-11T01:34:46;99432.25;;;15.12;57.29
38939;BME280;24211;49.980;19.776;2022-07-11T01:37:14;99435.50;;;15.14;57.13
38939;BME280;24211;49.980;19.776;2022-07-11T01:39:41;99437.16;;;15.15;57.08
38939;BME280;24211;49.980;19.776;2022-07-11T01:42:09;99436.00;;;15.11;57.35
38939;BME280;24211;49.980;19.776;2022-07-11T01:44:36;99438.13;;;15.09;57.13
38939;BME280;24211;49.980;19.776;2022-07-11T01:47:03;99431.44;;;15.12;57.01
38939;BME280;24211;49.980;19.776;2022-07-11T01:49:30;99432.25;;;15.12;57.37
38939;BME280;24211;49.980;19.776;2022-07-11T01:51:57;99433.31;;;15.11;57.38
38939;BME280;24211;49.980;19.776;2022-07-11T01:54:25;99434.38;;;15.10;57.14
38939;BME280;24211;49.980;19.776;2022-07-11T01:56:52;99431.63;;;15.05;57.53
38939;BME280;24211;49.980;19.776;2022-07-11T01:59:19;99426.25;;;15.05;57.51
38939;BME280;24211;49.980;19.776;2022-07-11T02:01:46;99427.91;;;15.06;57.92
38939;BME280;24211;49.980;19.776;2022-07-11T02:04:13;99431.06;;;15.03;58.05
38939;BME280;24211;49.980;19.776;2022-07-11T02:06:40;99432.63;;;14.99;58.21
38939;BME280;24211;49.980;19.776;2022-07-11T02:09:07;99419.91;;;14.94;58.78
38939;BME280;24211;49.980;19.776;2022-07-11T02:11:35;99427.75;;;14.96;58.65
38939;BME280;24211;49.980;19.776;2022-07-11T02:14:02;99420.25;;;14.98;58.21
38939;BME280;24211;49.980;19.776;2022-07-11T02:16:29;99426.13;;;14.95;58.57
38939;BME280;24211;49.980;19.776;2022-07-11T02:18:57;99418.06;;;14.95;58.26
38939;BME280;24211;49.980;19.776;2022-07-11T02:21:24;99417.00;;;14.96;58.17
38939;BME280;24211;49.980;19.776;2022-07-11T02:23:51;99414.31;;;14.96;58.07
38939;BME280;24211;49.980;19.776;2022-07-11T02:26:19;99422.88;;;14.93;57.92
38939;BME280;24211;49.980;19.776;2022-07-11T02:28:46;99425.00;;;14.91;58.13
38939;BME280;24211;49.980;19.776;2022-07-11T02:31:14;99420.63;;;14.85;58.65
38939;BME280;24211;49.980;19.776;2022-07-11T02:33:42;99427.63;;;14.86;58.67
38939;BME280;24211;49.980;19.776;2022-07-11T02:36:10;99424.38;;;14.84;59.08
38939;BME280;24211;49.980;19.776;2022-07-11T02:38:38;99433.00;;;14.86;58.72
38939;BME280;24211;49.980;19.776;2022-07-11T02:41:05;99434.63;;;14.87;58.37
38939;BME280;24211;49.980;19.776;2022-07-11T02:43:33;99433.56;;;14.88;58.46
38939;BME280;24211;49.980;19.776;2022-07-11T02:46:01;99430.56;;;14.84;58.75
38939;BME280;24211;49.980;19.776;2022-07-11T02:48:28;99433.00;;;14.86;58.22
38939;BME280;24211;49.980;19.776;2022-07-11T02:50:57;99433.00;;;14.86;57.96
38939;BME280;24211;49.980;19.776;2022-07-11T02:53:24;99437.09;;;14.88;57.93
38939;BME280;24211;49.980;19.776;2022-07-11T02:55:52;99436.25;;;14.88;57.84
38939;BME280;24211;49.980;19.776;2022-07-11T02:58:19;99434.63;;;14.87;58.22
38939;BME280;24211;49.980;19.776;2022-07-11T03:00:46;99436.25;;;14.88;58.07
38939;BME280;24211;49.980;19.776;2022-07-11T03:03:13;99428.19;;;14.88;58.05
38939;BME280;24211;49.980;19.776;2022-07-11T03:05:40;99422.81;;;14.88;57.81
38939;BME280;24211;49.980;19.776;2022-07-11T03:08:08;99424.38;;;14.84;58.00
38939;BME280;24211;49.980;19.776;2022-07-11T03:10:35;99439.38;;;14.80;58.64
38939;BME280;24211;49.980;19.776;2022-07-11T03:13:02;99428.88;;;14.78;58.83
38939;BME280;24211;49.980;19.776;2022-07-11T03:15:29;99432.94;;;14.81;58.58
38939;BME280;24211;49.980;19.776;2022-07-11T03:17:57;99428.63;;;14.80;58.66
38939;BME280;24211;49.980;19.776;2022-07-11T03:20:24;99429.44;;;14.80;58.37
38939;BME280;24211;49.980;19.776;2022-07-11T03:22:51;99434.00;;;14.80;58.86
38939;BME280;24211;49.980;19.776;2022-07-11T03:25:18;99427.56;;;14.81;58.73
38939;BME280;24211;49.980;19.776;2022-07-11T03:27:45;99441.50;;;14.78;58.63
38939;BME280;24211;49.980;19.776;2022-07-11T03:30:12;99442.81;;;14.75;59.51
38939;BME280;24211;49.980;19.776;2022-07-11T03:32:42;99440.88;;;14.71;59.96
38939;BME280;24211;49.980;19.776;2022-07-11T03:35:09;99449.19;;;14.69;59.92
38939;BME280;24211;49.980;19.776;2022-07-11T03:37:55;99440.06;;;14.70;59.89
38939;BME280;24211;49.980;19.776;2022-07-11T03:40:22;99443.00;;;14.69;60.30
38939;BME280;24211;49.980;19.776;2022-07-11T03:42:49;99443.78;;;14.69;60.23
38939;BME280;24211;49.980;19.776;2022-07-11T03:45:17;99448.94;;;14.71;59.87
38939;BME280;24211;49.980;19.776;2022-07-11T03:47:45;99445.94;;;14.67;60.85
38939;BME280;24211;49.980;19.776;2022-07-11T03:50:15;99456.94;;;14.66;60.99
38939;BME280;24211;49.980;19.776;2022-07-11T03:52:43;99453.22;;;14.67;61.48
38939;BME280;24211;49.980;19.776;2022-07-11T03:55:12;99458.25;;;14.63;61.93
38939;BME280;24211;49.980;19.776;2022-07-11T03:57:39;99458.50;;;14.62;62.03
38939;BME280;24211;49.980;19.776;2022-07-11T04:00:08;99460.13;;;14.63;61.86
38939;BME280;24211;49.980;19.776;2022-07-11T04:02:35;99456.38;;;14.64;61.54
38939;BME280;24211;49.980;19.776;2022-07-11T04:05:04;99462.59;;;14.64;61.94
38939;BME280;24211;49.980;19.776;2022-07-11T04:07:32;99459.56;;;14.61;62.13
38939;BME280;24211;49.980;19.776;2022-07-11T04:09:59;99464.38;;;14.59;62.93
38939;BME280;24211;49.980;19.776;2022-07-11T04:12:27;99458.44;;;14.57;62.97
38939;BME280;24211;49.980;19.776;2022-07-11T04:14:54;99466.50;;;14.57;62.70
38939;BME280;24211;49.980;19.776;2022-07-11T04:17:21;99464.38;;;14.59;62.72
38939;BME280;24211;49.980;19.776;2022-07-11T04:19:48;99471.63;;;14.58;62.73
38939;BME280;24211;49.980;19.776;2022-07-11T04:22:15;99467.28;;;14.57;63.11
38939;BME280;24211;49.980;19.776;2022-07-11T04:24:42;99469.75;;;14.59;63.04
38939;BME280;24211;49.980;19.776;2022-07-11T04:27:10;99471.97;;;14.62;62.46
38939;BME280;24211;49.980;19.776;2022-07-11T04:29:37;99463.88;;;14.62;62.64
38939;BME280;24211;49.980;19.776;2022-07-11T04:32:05;99463.88;;;14.62;62.53
38939;BME280;24211;49.980;19.776;2022-07-11T04:34:32;99462.25;;;14.61;62.87
38939;BME280;24211;49.980;19.776;2022-07-11T04:37:00;99467.06;;;14.59;63.00
38939;BME280;24211;49.980;19.776;2022-07-11T04:39:27;99468.38;;;14.56;63.58
38939;BME280;24211;49.980;19.776;2022-07-11T04:41:54;99470.25;;;14.56;63.76
38939;BME280;24211;49.980;19.776;2022-07-11T04:44:22;99469.75;;;14.59;63.42
38939;BME280;24211;49.980;19.776;2022-07-11T04:46:49;99474.66;;;14.62;63.44
38939;BME280;24211;49.980;19.776;2022-07-11T04:49:16;99480.03;;;14.62;64.68
38939;BME280;24211;49.980;19.776;2022-07-11T04:51:44;99476.75;;;14.60;64.45
38939;BME280;24211;49.980;19.776;2022-07-11T04:54:11;99481.63;;;14.63;64.50
38939;BME280;24211;49.980;19.776;2022-07-11T04:56:39;99480.88;;;14.67;63.63
38939;BME280;24211;49.980;19.776;2022-07-11T04:59:09;99484.41;;;14.68;64.59
38939;BME280;24211;49.980;19.776;2022-07-11T05:01:36;99488.97;;;14.67;64.44
38939;BME280;24211;49.980;19.776;2022-07-11T05:04:04;99487.66;;;14.70;63.72
38939;BME280;24211;49.980;19.776;2022-07-11T05:06:31;99484.47;;;14.73;63.97
38939;BME280;24211;49.980;19.776;2022-07-11T05:08:59;99485.03;;;14.75;63.46
38939;BME280;24211;49.980;19.776;2022-07-11T05:11:28;99492.06;;;14.76;64.03
38939;BME280;24211;49.980;19.776;2022-07-11T05:13:56;99489.94;;;14.78;63.58
38939;BME280;24211;49.980;19.776;2022-07-11T05:16:23;99492.38;;;14.79;63.46
38939;BME280;24211;49.980;19.776;2022-07-11T05:18:51;99475.16;;;14.80;63.42
38939;BME280;24211;49.980;19.776;2022-07-11T05:21:18;99488.97;;;14.84;63.68
38939;BME280;24211;49.980;19.776;2022-07-11T05:23:50;99480.63;;;14.85;63.68
38939;BME280;24211;49.980;19.776;2022-07-11T05:26:17;99485.53;;;14.88;63.76
38939;BME280;24211;49.980;19.776;2022-07-11T05:28:44;99486.31;;;14.89;64.27
38939;BME280;24211;49.980;19.776;2022-07-11T05:31:11;99486.09;;;14.90;64.51
38939;BME280;24211;49.980;19.776;2022-07-11T05:33:39;99486.63;;;14.92;64.03
38939;BME280;24211;49.980;19.776;2022-07-11T05:36:06;99484.84;;;14.98;64.17
38939;BME280;24211;49.980;19.776;2022-07-11T05:38:34;99487.59;;;15.03;63.95
38939;BME280;24211;49.980;19.776;2022-07-11T05:41:03;99483.66;;;15.11;63.87
38939;BME280;24211;49.980;19.776;2022-07-11T05:43:30;99490.16;;;15.15;63.84
38939;BME280;24211;49.980;19.776;2022-07-11T05:45:57;99498.88;;;15.22;64.67
38939;BME280;24211;49.980;19.776;2022-07-11T05:48:24;99487.59;;;15.25;65.21
38939;BME280;24211;49.980;19.776;2022-07-11T05:50:52;99495.97;;;15.28;65.55
38939;BME280;24211;49.980;19.776;2022-07-11T05:53:19;99499.31;;;15.35;66.10
38939;BME280;24211;49.980;19.776;2022-07-11T05:55:46;99502.06;;;15.40;66.54
38939;BME280;24211;49.980;19.776;2022-07-11T05:58:13;99491.41;;;15.45;67.19
38939;BME280;24211;49.980;19.776;2022-07-11T06:00:40;99489.56;;;15.51;67.20
38939;BME280;24211;49.980;19.776;2022-07-11T06:03:07;99491.44;;;15.50;67.31
38939;BME280;24211;49.980;19.776;2022-07-11T06:05:35;99497.41;;;15.52;67.20
38939;BME280;24211;49.980;19.776;2022-07-11T06:08:02;99497.41;;;15.52;66.48
38939;BME280;24211;49.980;19.776;2022-07-11T06:10:48;99497.91;;;15.49;66.33
38939;BME280;24211;49.980;19.776;2022-07-11T06:13:15;99500.59;;;15.49;66.09
38939;BME280;24211;49.980;19.776;2022-07-11T06:15:42;99501.66;;;15.48;66.16
38939;BME280;24211;49.980;19.776;2022-07-11T06:18:10;99493.63;;;15.53;66.15
38939;BME280;24211;49.980;19.776;2022-07-11T06:20:37;99496.88;;;15.55;65.65
38939;BME280;24211;49.980;19.776;2022-07-11T06:23:04;99486.38;;;15.54;65.53
38939;BME280;24211;49.980;19.776;2022-07-11T06:25:33;99493.13;;;15.56;65.55
38939;BME280;24211;49.980;19.776;2022-07-11T06:28:00;99493.25;;;15.66;65.43
38939;BME280;24211;49.980;19.776;2022-07-11T06:30:28;99490.09;;;15.75;64.61
38939;BME280;24211;49.980;19.776;2022-07-11T06:32:55;99489.06;;;15.81;64.46
38939;BME280;24211;49.980;19.776;2022-07-11T06:35:23;99485.31;;;15.82;64.19
38939;BME280;24211;49.980;19.776;2022-07-11T06:37:50;99491.81;;;15.86;64.11
38939;BME280;24211;49.980;19.776;2022-07-11T06:40:18;99484.81;;;15.85;64.06
38939;BME280;24211;49.980;19.776;2022-07-11T06:42:45;99487.53;;;15.90;63.98
38939;BME280;24211;49.980;19.776;2022-07-11T06:45:12;99491.09;;;15.95;63.73
38939;BME280;24211;49.980;19.776;2022-07-11T06:47:40;99490.38;;;16.05;63.55
38939;BME280;24211;49.980;19.776;2022-07-11T06:50:08;99490.47;;;16.15;63.45
38939;BME280;24211;49.980;19.776;2022-07-11T06:52:36;99496.78;;;16.25;62.88
38939;BME280;24211;49.980;19.776;2022-07-11T06:55:04;99498.78;;;16.40;62.53
38939;BME280;24211;49.980;19.776;2022-07-11T06:57:31;99490.06;;;16.60;62.00
38939;BME280;24211;49.980;19.776;2022-07-11T06:59:58;99492.66;;;16.86;61.55
38939;BME280;24211;49.980;19.776;2022-07-11T07:02:26;99491.13;;;17.06;60.86
38939;BME280;24211;49.980;19.776;2022-07-11T07:04:57;99482.06;;;17.27;60.17
38939;BME280;24211;49.980;19.776;2022-07-11T07:07:28;99493.00;;;17.57;59.04
38939;BME280;24211;49.980;19.776;2022-07-11T07:09:55;99476.84;;;17.72;58.47
38939;BME280;24211;49.980;19.776;2022-07-11T07:12:23;99490.94;;;17.99;57.49
38939;BME280;24211;49.980;19.776;2022-07-11T07:14:50;99491.75;;;18.00;57.41
38939;BME280;24211;49.980;19.776;2022-07-11T07:17:18;99485.81;;;18.03;56.90
38939;BME280;24211;49.980;19.776;2022-07-11T07:19:45;99476.88;;;18.02;56.50
38939;BME280;24211;49.980;19.776;2022-07-11T07:22:13;99482.56;;;18.11;56.41
38939;BME280;24211;49.980;19.776;2022-07-11T07:24:43;99483.94;;;18.34;55.56
38939;BME280;24211;49.980;19.776;2022-07-11T07:27:11;99472.06;;;18.50;54.92
38939;BME280;24211;49.980;19.776;2022-07-11T07:29:38;99475.84;;;18.54;54.99
38939;BME280;24211;49.980;19.776;2022-07-11T07:32:07;99470.41;;;18.74;54.21
38939;BME280;24211;49.980;19.776;2022-07-11T07:34:34;99466.00;;;19.03;53.74
38939;BME280;24211;49.980;19.776;2022-07-11T07:37:01;99460.47;;;19.28;52.99
38939;BME280;24211;49.980;19.776;2022-07-11T07:39:29;99465.88;;;19.43;52.00
38939;BME280;24211;49.980;19.776;2022-07-11T07:41:56;99451.19;;;19.49;51.90
38939;BME280;24211;49.980;19.776;2022-07-11T07:44:23;99454.88;;;19.64;51.21
38939;BME280;24211;49.980;19.776;2022-07-11T07:46:51;99453.19;;;19.78;50.54
38939;BME280;24211;49.980;19.776;2022-07-11T07:49:18;99451.69;;;19.95;49.95
38939;BME280;24211;49.980;19.776;2022-07-11T07:51:45;99449.72;;;20.06;49.64
38939;BME280;24211;49.980;19.776;2022-07-11T07:54:12;99443.69;;;20.14;49.34
38939;BME280;24211;49.980;19.776;2022-07-11T07:56:40;99432.81;;;20.19;48.73
38939;BME280;24211;49.980;19.776;2022-07-11T07:59:07;99442.03;;;20.23;48.52
38939;BME280;24211;49.980;19.776;2022-07-11T08:01:34;99441.00;;;20.14;48.86
38939;BME280;24211;49.980;19.776;2022-07-11T08:04:07;99431.44;;;20.21;48.89
38939;BME280;24211;49.980;19.776;2022-07-11T08:06:36;99438.28;;;20.14;48.90
38939;BME280;24211;49.980;19.776;2022-07-11T08:09:06;99439.78;;;20.30;48.91
38939;BME280;24211;49.980;19.776;2022-07-11T08:11:35;99440.22;;;20.71;48.45
38939;BME280;24211;49.980;19.776;2022-07-11T08:14:04;99429.94;;;20.92;47.96
38939;BME280;24211;49.980;19.776;2022-07-11T08:16:32;99430.75;;;20.92;47.72
38939;BME280;24211;49.980;19.776;2022-07-11T08:19:02;99432.59;;;20.97;47.39
38939;BME280;24211;49.980;19.776;2022-07-11T08:21:33;99433.75;;;20.91;47.94
38939;BME280;24211;49.980;19.776;2022-07-11T08:24:02;99431.44;;;20.79;49.59
38939;BME280;24211;49.980;19.776;2022-07-11T08:26:32;99438.94;;;20.63;51.44
38939;BME280;24211;49.980;19.776;2022-07-11T08:32:19;99426.94;;;20.41;52.39
38939;BME280;24211;49.980;19.776;2022-07-11T08:34:47;99419.47;;;20.56;51.98
38939;BME280;24211;49.980;19.776;2022-07-11T08:37:14;99419.19;;;20.81;51.37
38939;BME280;24211;49.980;19.776;2022-07-11T08:39:41;99408.59;;;21.04;50.78
38939;BME280;24211;49.980;19.776;2022-07-11T08:42:18;99401.47;;;21.31;49.97
38939;BME280;24211;49.980;19.776;2022-07-11T08:44:47;99394.16;;;21.69;49.10
38939;BME280;24211;49.980;19.776;2022-07-11T08:47:14;99388.53;;;21.98;47.72
38939;BME280;24211;49.980;19.776;2022-07-11T08:49:44;99384.16;;;22.16;47.51
38939;BME280;24211;49.980;19.776;2022-07-11T08:52:14;99385.09;;;22.25;47.08
38939;BME280;24211;49.980;19.776;2022-07-11T08:54:42;99376.16;;;22.38;46.68
38939;BME280;24211;49.980;19.776;2022-07-11T08:57:11;99378.41;;;22.63;46.11
38939;BME280;24211;49.980;19.776;2022-07-11T08:59:40;99357.41;;;23.04;45.46
38939;BME280;24211;49.980;19.776;2022-07-11T09:02:10;99361.59;;;23.37;44.82
38939;BME280;24211;49.980;19.776;2022-07-11T09:04:40;99358.94;;;23.82;41.84
38939;BME280;24211;49.980;19.776;2022-07-11T09:07:07;99365.75;;;23.71;41.95
38939;BME280;24211;49.980;19.776;2022-07-11T09:09:35;99377.06;;;23.28;40.66
38939;BME280;24211;49.980;19.776;2022-07-11T09:12:15;99376.56;;;22.58;40.52
38939;BME280;24211;49.980;19.776;2022-07-11T09:14:50;99382.16;;;22.21;41.15
38939;BME280;24211;49.980;19.776;2022-07-11T09:17:27;99394.72;;;22.03;41.47
38939;BME280;24211;49.980;19.776;2022-07-11T09:19:55;99380.06;;;21.99;41.85
38939;BME280;24211;49.980;19.776;2022-07-11T09:22:23;99399.66;;;21.64;42.88
38939;BME280;24211;49.980;19.776;2022-07-11T09:25:11;99399.81;;;21.54;44.07
38939;BME280;24211;49.980;19.776;2022-07-11T09:28:03;99399.31;;;21.10;45.89
38939;BME280;24211;49.980;19.776;2022-07-11T09:30:37;99396.19;;;20.98;45.73
38939;BME280;24211;49.980;19.776;2022-07-11T09:33:12;99390.66;;;21.08;44.91
38939;BME280;24211;49.980;19.776;2022-07-11T09:35:43;99391.31;;;20.95;44.63
38939;BME280;24211;49.980;19.776;2022-07-11T09:38:16;99378.97;;;21.07;44.26
38939;BME280;24211;49.980;19.776;2022-07-11T09:40:46;99386.13;;;21.22;43.43
38939;BME280;24211;49.980;19.776;2022-07-11T09:43:24;99376.63;;;21.38;43.41
38939;BME280;24211;49.980;19.776;2022-07-11T09:45:52;99376.84;;;21.60;43.06
38939;BME280;24211;49.980;19.776;2022-07-11T09:48:19;99372.31;;;21.74;43.23
38939;BME280;24211;49.980;19.776;2022-07-11T09:50:57;99378.09;;;21.68;43.34
38939;BME280;24211;49.980;19.776;2022-07-11T09:53:31;99378.47;;;21.98;42.73
38939;BME280;24211;49.980;19.776;2022-07-11T09:55:59;99368.41;;;22.12;42.44
38939;BME280;24211;49.980;19.776;2022-07-11T09:58:30;99365.63;;;22.31;42.28
38939;BME280;24211;49.980;19.776;2022-07-11T10:00:59;99358.44;;;22.67;41.96
38939;BME280;24211;49.980;19.776;2022-07-11T10:03:28;99364.97;;;23.07;40.97
38939;BME280;24211;49.980;19.776;2022-07-11T10:06:16;99365.47;;;23.36;40.41
38939;BME280;24211;49.980;19.776;2022-07-11T10:08:43;99358.75;;;23.56;40.04
38939;BME280;24211;49.980;19.776;2022-07-11T10:11:11;99353.22;;;23.70;39.46
38939;BME280;24211;49.980;19.776;2022-07-11T10:13:41;99349.81;;;24.09;38.97
38939;BME280;24211;49.980;19.776;2022-07-11T10:22:38;99347.47;;;24.86;37.33
38939;BME280;24211;49.980;19.776;2022-07-11T10:25:31;99341.81;;;24.82;36.97
38939;BME280;24211;49.980;19.776;2022-07-11T10:28:36;99347.47;;;24.86;36.89
38939;BME280;24211;49.980;19.776;2022-07-11T10:31:21;99340.28;;;25.07;36.64
38939;BME280;24211;49.980;19.776;2022-07-11T10:34:06;99343.72;;;25.38;35.98
38939;BME280;24211;49.980;19.776;2022-07-11T10:36:40;99339.53;;;25.66;35.38
38939;BME280;24211;49.980;19.776;2022-07-11T10:39:20;99323.06;;;26.01;34.58
38939;BME280;24211;49.980;19.776;2022-07-11T10:41:58;99324.97;;;26.26;34.47
38939;BME280;24211;49.980;19.776;2022-07-11T10:44:47;99329.84;;;26.49;33.97
38939;BME280;24211;49.980;19.776;2022-07-11T10:52:49;99333.34;;;26.21;35.40
38939;BME280;24211;49.980;19.776;2022-07-11T10:58:30;99345.66;;;25.46;34.49
38939;BME280;24211;49.980;19.776;2022-07-11T11:03:42;99378.22;;;23.85;41.84
38939;BME280;24211;49.980;19.776;2022-07-11T11:06:11;99377.16;;;23.51;42.34
38939;BME280;24211;49.980;19.776;2022-07-11T11:08:43;99379.19;;;23.31;43.40
38939;BME280;24211;49.980;19.776;2022-07-11T11:14:21;99435.34;;;22.78;45.92
38939;BME280;24211;49.980;19.776;2022-07-11T11:16:49;99475.41;;;21.10;51.63
38939;BME280;24211;49.980;19.776;2022-07-11T11:22:18;99481.53;;;19.51;55.53
38939;BME280;24211;49.980;19.776;2022-07-11T11:24:53;99480.78;;;19.41;56.01
38939;BME280;24211;49.980;19.776;2022-07-11T11:28:04;99486.25;;;19.21;55.58
38939;BME280;24211;49.980;19.776;2022-07-11T11:30:33;99479.59;;;18.73;56.15
38939;BME280;24211;49.980;19.776;2022-07-11T11:33:00;99482.56;;;18.81;55.57
38939;BME280;24211;49.980;19.776;2022-07-11T11:35:30;99475.28;;;18.67;56.03
38939;BME280;24211;49.980;19.776;2022-07-11T11:37:59;99479.59;;;18.73;55.30
38939;BME280;24211;49.980;19.776;2022-07-11T11:40:28;99474.72;;;18.70;54.87
38939;BME280;24211;49.980;19.776;2022-07-11T11:42:55;99474.47;;;18.61;54.70
38939;BME280;24211;49.980;19.776;2022-07-11T11:45:23;99467.72;;;18.64;54.94
38939;BME280;24211;49.980;19.776;2022-07-11T11:47:50;99468.22;;;18.76;53.98
38939;BME280;24211;49.980;19.776;2022-07-11T11:50:18;99470.91;;;18.81;54.08
38939;BME280;24211;49.980;19.776;2022-07-11T11:52:46;99480.69;;;18.77;54.44
38939;BME280;24211;49.980;19.776;2022-07-11T11:55:13;99496.34;;;18.85;54.08
38939;BME280;24211;49.980;19.776;2022-07-11T11:57:41;99505.56;;;18.94;53.70
38939;BME280;24211;49.980;19.776;2022-07-11T12:00:29;99489.53;;;19.03;53.42
38939;BME280;24211;49.980;19.776;2022-07-11T12:03:18;99486.00;;;19.12;53.68
38939;BME280;24211;49.980;19.776;2022-07-11T12:05:56;99494.09;;;19.22;53.58
38939;BME280;24211;49.980;19.776;2022-07-11T12:08:28;99500.03;;;19.29;53.72
38939;BME280;24211;49.980;19.776;2022-07-11T12:10:56;99501.66;;;19.40;53.98
38939;BME280;24211;49.980;19.776;2022-07-11T12:13:23;99490.75;;;19.55;54.46
38939;BME280;24211;49.980;19.776;2022-07-11T12:15:51;99493.31;;;19.76;54.08
38939;BME280;24211;49.980;19.776;2022-07-11T12:18:37;99485.00;;;20.06;54.08
38939;BME280;24211;49.980;19.776;2022-07-11T12:21:12;99488.03;;;20.38;52.97
38939;BME280;24211;49.980;19.776;2022-07-11T12:23:40;99485.53;;;20.75;52.54
38939;BME280;24211;49.980;19.776;2022-07-11T12:26:08;99485.09;;;21.16;51.42
38939;BME280;24211;49.980;19.776;2022-07-11T12:28:35;99470.28;;;21.50;50.80
38939;BME280;24211;49.980;19.776;2022-07-11T12:31:04;99466.06;;;21.82;50.09
38939;BME280;24211;49.980;19.776;2022-07-11T12:33:33;99460.88;;;22.18;49.34
38939;BME280;24211;49.980;19.776;2022-07-11T12:36:02;99459.25;;;22.49;48.52
38939;BME280;24211;49.980;19.776;2022-07-11T12:38:51;99453.03;;;22.94;47.46
38939;BME280;24211;49.980;19.776;2022-07-11T12:41:19;99453.53;;;23.23;46.55
38939;BME280;24211;49.980;19.776;2022-07-11T12:43:50;99443.00;;;23.58;45.37
38939;BME280;24211;49.980;19.776;2022-07-11T12:46:38;99447.88;;;23.83;44.75
38939;BME280;24211;49.980;19.776;2022-07-11T12:49:11;99440.25;;;23.93;45.25
38939;BME280;24211;49.980;19.776;2022-07-11T12:51:44;99437.72;;;23.97;45.47
38939;BME280;24211;49.980;19.776;2022-07-11T12:54:15;99439.03;;;23.99;45.31
38939;BME280;24211;49.980;19.776;2022-07-11T12:56:56;99444.44;;;24.13;44.74
38939;BME280;24211;49.980;19.776;2022-07-11T12:59:26;99440.41;;;24.11;44.74
38939;BME280;24211;49.980;19.776;2022-07-11T13:02:03;99439.91;;;24.09;44.75
38939;BME280;24211;49.980;19.776;2022-07-11T13:04:37;99445.47;;;24.17;44.50
38939;BME280;24211;49.980;19.776;2022-07-11T13:07:34;99436.78;;;24.15;44.71
38939;BME280;24211;49.980;19.776;2022-07-11T13:10:26;99455.88;;;24.15;43.39
38939;BME280;24211;49.980;19.776;2022-07-11T13:12:55;99450.94;;;24.03;42.75
38939;BME280;24211;49.980;19.776;2022-07-11T13:15:23;99454.69;;;23.72;43.05
38939;BME280;24211;49.980;19.776;2022-07-11T13:17:54;99449.88;;;23.55;42.97
38939;BME280;24211;49.980;19.776;2022-07-11T13:20:27;99453.75;;;23.40;43.24
38939;BME280;24211;49.980;19.776;2022-07-11T13:22:55;99455.53;;;23.31;43.60
38939;BME280;24211;49.980;19.776;2022-07-11T13:25:24;99458.97;;;23.10;44.01
38939;BME280;24211;49.980;19.776;2022-07-11T13:27:52;99459.56;;;22.93;43.76
38939;BME280;24211;49.980;19.776;2022-07-11T13:30:22;99454.91;;;22.66;43.75